createdAt,value
2019-02-05T00:02:17.304Z,4.60
2019-02-05T00:04:51.073Z,6.00
2019-02-05T00:07:22.281Z,4.73
2019-02-05T00:09:55.630Z,5.40
2019-02-05T00:12:26.963Z,4.33
2019-02-05T00:14:58.516Z,5.03
2019-02-05T00:17:31.131Z,4.60
2019-02-05T00:20:03.221Z,5.17
2019-02-05T00:22:34.446Z,5.20
2019-02-05T00:25:06.092Z,5.60
2019-02-05T00:27:40.014Z,5.37
2019-02-05T00:30:13.445Z,5.50
2019-02-05T00:32:47.235Z,6.50
2019-02-05T00:35:23.034Z,6.73
2019-02-05T00:37:55.134Z,7.40
2019-02-05T00:40:26.357Z,6.87
2019-02-05T00:42:57.584Z,7.37
2019-02-05T00:45:31.441Z,7.10
2019-02-05T00:48:05.641Z,6.23
2019-02-05T00:50:37.193Z,6.20
2019-02-05T00:53:09.254Z,6.77
2019-02-05T00:55:43.190Z,6.53
2019-02-05T00:58:17.675Z,5.27
2019-02-05T01:00:50.502Z,7.90
2019-02-05T01:03:22.092Z,5.70
2019-02-05T01:05:56.252Z,5.27
2019-02-05T01:08:28.233Z,4.90
2019-02-05T01:11:01.223Z,4.73
2019-02-05T01:13:34.291Z,4.87
2019-02-05T01:16:08.339Z,5.30
2019-02-05T01:18:42.232Z,5.23
2019-02-05T01:21:16.320Z,4.70
2019-02-05T01:23:47.512Z,5.07
2019-02-05T01:26:29.344Z,4.80
2019-02-05T01:28:58.392Z,4.23
2019-02-05T01:31:31.228Z,4.43
2019-02-05T01:34:05.498Z,4.40
2019-02-05T01:36:39.050Z,4.17
2019-02-05T01:39:10.298Z,4.43
2019-02-05T01:41:45.569Z,4.40
2019-02-05T01:44:18.882Z,4.57
2019-02-05T01:46:53.339Z,3.93
2019-02-05T01:49:26.538Z,4.87
2019-02-05T01:52:01.504Z,5.40
2019-02-05T01:54:36.268Z,6.30
2019-02-05T01:57:08.281Z,7.27
2019-02-05T01:59:41.438Z,5.80
2019-02-05T02:02:15.464Z,5.67
2019-02-05T02:04:47.614Z,4.67
2019-02-05T02:07:20.569Z,5.50
2019-02-05T02:09:54.520Z,4.80
2019-02-05T02:12:28.498Z,4.20
2019-02-05T02:14:59.741Z,4.40
2019-02-05T02:17:31.422Z,4.33
2019-02-05T02:20:07.917Z,4.20
2019-02-05T02:22:39.445Z,4.07
2019-02-05T02:25:12.607Z,5.20
2019-02-05T02:27:45.981Z,7.87
2019-02-05T02:30:32.329Z,9.80
2019-02-05T02:33:06.167Z,8.63
2019-02-05T02:35:40.004Z,7.07
2019-02-05T02:38:13.649Z,7.80
2019-02-05T02:40:47.731Z,8.90
2019-02-05T02:43:21.736Z,7.30
2019-02-05T02:45:55.753Z,6.67
2019-02-05T02:48:31.805Z,5.40
2019-02-05T02:51:03.912Z,8.27
2019-02-05T02:53:37.901Z,6.60
2019-02-05T02:56:10.953Z,5.10
2019-02-05T02:58:44.050Z,5.40
2019-02-05T03:01:15.951Z,5.23
2019-02-05T03:03:47.146Z,3.97
2019-02-05T03:06:20.721Z,4.10
2019-02-05T03:08:54.711Z,4.37
2019-02-05T03:11:30.264Z,5.40
2019-02-05T03:14:02.820Z,4.67
2019-02-05T03:16:35.011Z,4.87
2019-02-05T03:19:07.007Z,4.70
2019-02-05T03:21:38.548Z,3.67
2019-02-05T03:24:11.949Z,4.50
2019-02-05T03:26:45.859Z,5.30
2019-02-05T03:29:18.050Z,3.97
2019-02-05T03:31:51.111Z,4.80
2019-02-05T03:34:24.887Z,4.67
2019-02-05T03:36:58.853Z,4.20
2019-02-05T03:39:30.041Z,4.40
2019-02-05T03:42:03.958Z,3.73
2019-02-05T03:44:38.102Z,3.90
2019-02-05T03:47:12.458Z,4.57
2019-02-05T03:49:46.152Z,4.13
2019-02-05T03:52:21.356Z,4.07
2019-02-05T03:55:46.547Z,4.00
2019-02-05T03:58:45.793Z,4.07
2019-02-05T04:01:58.319Z,4.70
2019-02-05T04:05:09.823Z,5.00
2019-02-05T04:08:32.088Z,4.40
2019-02-05T04:12:16.478Z,4.60
2019-02-05T04:15:30.589Z,4.67
2019-02-05T04:18:43.002Z,4.97
2019-02-05T04:21:48.444Z,4.93
2019-02-05T04:25:20.960Z,6.37
2019-02-05T04:28:23.128Z,7.30
2019-02-05T04:31:30.625Z,8.10
2019-02-05T04:34:20.804Z,6.23
2019-02-05T04:37:15.810Z,5.40
2019-02-05T04:40:27.534Z,5.63
2019-02-05T04:43:47.113Z,5.17
2019-02-05T04:47:07.956Z,8.20
2019-02-05T04:50:28.590Z,5.90
2019-02-05T04:53:48.097Z,4.80
2019-02-05T04:56:48.343Z,4.60
2019-02-05T05:00:16.886Z,4.13
2019-02-05T05:03:42.297Z,3.80
2019-02-05T05:06:35.553Z,5.90
2019-02-05T05:09:30.775Z,7.47
2019-02-05T05:12:02.441Z,4.50
2019-02-05T05:14:35.451Z,5.67
2019-02-05T05:17:06.819Z,6.63
2019-02-05T05:19:38.192Z,5.23
2019-02-05T05:22:13.023Z,4.77
2019-02-05T05:24:45.390Z,4.50
2019-02-05T05:27:21.157Z,5.40
2019-02-05T05:29:54.401Z,4.17
2019-02-05T05:32:28.980Z,4.40
2019-02-05T05:35:02.391Z,4.93
2019-02-05T05:37:34.481Z,4.60
2019-02-05T05:40:08.750Z,5.10
2019-02-05T05:42:44.109Z,4.13
2019-02-05T05:45:17.407Z,4.57
2019-02-05T05:47:50.190Z,5.10
2019-02-05T05:50:23.534Z,4.47
2019-02-05T05:52:58.332Z,4.47
2019-02-05T05:55:31.652Z,5.00
2019-02-05T05:58:06.427Z,4.83
2019-02-05T06:00:37.601Z,5.53
2019-02-05T06:03:09.652Z,5.27
2019-02-05T06:05:41.030Z,6.57
2019-02-05T06:08:12.591Z,5.37
2019-02-05T06:10:43.812Z,8.57
2019-02-05T06:13:17.583Z,8.83
2019-02-05T06:15:51.494Z,8.50
2019-02-05T06:18:25.456Z,6.80
2019-02-05T06:20:58.690Z,7.03
2019-02-05T06:23:31.538Z,7.00
2019-02-05T06:26:03.674Z,5.30
2019-02-05T06:28:35.491Z,5.90
2019-02-05T06:31:11.291Z,9.87
2019-02-05T06:33:42.704Z,9.60
2019-02-05T06:36:16.748Z,9.37
2019-02-05T06:38:54.576Z,10.90
2019-02-05T06:41:27.841Z,6.90
2019-02-05T06:44:02.525Z,6.73
2019-02-05T06:46:34.913Z,6.07
2019-02-05T06:49:06.837Z,7.47
2019-02-05T06:51:40.847Z,6.07
2019-02-05T06:54:13.855Z,7.40
2019-02-05T06:56:45.790Z,6.40
2019-02-05T06:59:18.021Z,4.90
2019-02-05T07:01:53.302Z,4.60
2019-02-05T07:04:26.450Z,5.40
2019-02-05T07:06:58.918Z,5.30
2019-02-05T07:09:31.450Z,5.13
2019-02-05T07:12:03.633Z,5.00
2019-02-05T07:14:35.263Z,4.77
2019-02-05T07:17:06.834Z,6.50
2019-02-05T07:19:39.226Z,5.40
2019-02-05T07:22:12.048Z,4.97
2019-02-05T07:24:43.929Z,5.90
2019-02-05T07:27:19.395Z,4.47
2019-02-05T07:29:51.969Z,7.37
2019-02-05T07:32:25.941Z,6.07
2019-02-05T07:35:01.396Z,6.47
2019-02-05T07:37:34.975Z,6.00
2019-02-05T07:40:10.088Z,6.00
2019-02-05T07:42:44.016Z,4.73
2019-02-05T07:45:19.139Z,4.90
2019-02-05T07:47:53.063Z,5.20
2019-02-05T07:50:26.638Z,5.30
2019-02-05T07:53:00.171Z,5.20
2019-02-05T07:55:31.657Z,4.90
2019-02-05T07:58:04.990Z,5.13
2019-02-05T08:00:38.087Z,4.83
2019-02-05T08:03:15.361Z,4.93
2019-02-05T08:05:47.184Z,5.70
2019-02-05T08:08:21.153Z,5.63
2019-02-05T08:10:55.276Z,5.80
2019-02-05T08:13:30.806Z,5.20
2019-02-05T08:16:03.213Z,6.57
2019-02-05T08:18:35.133Z,5.00
2019-02-05T08:21:08.267Z,5.33
2019-02-05T08:23:42.340Z,5.50
2019-02-05T08:26:14.331Z,5.50
2019-02-05T08:28:52.362Z,5.60
2019-02-05T08:31:24.140Z,6.40
2019-02-05T08:33:58.267Z,5.87
2019-02-05T08:36:31.573Z,5.80
2019-02-05T08:39:08.912Z,7.63
2019-02-05T08:41:41.886Z,6.63
2019-02-05T08:44:16.059Z,7.00
2019-02-05T08:46:47.361Z,8.60
2019-02-05T08:49:23.346Z,8.27
2019-02-05T08:51:57.950Z,7.57
2019-02-05T08:54:29.709Z,9.13
2019-02-05T08:57:03.364Z,10.47
2019-02-05T08:59:35.607Z,8.33
2019-02-05T09:02:09.780Z,10.37
2019-02-05T09:04:42.641Z,10.27
2019-02-05T09:07:16.350Z,8.93
2019-02-05T09:09:50.357Z,7.57
2019-02-05T09:12:21.924Z,8.20
2019-02-05T09:14:53.165Z,6.73
2019-02-05T09:17:26.475Z,7.50
2019-02-05T09:20:02.265Z,8.77
2019-02-05T09:22:35.283Z,9.50
2019-02-05T09:25:09.532Z,7.67
2019-02-05T09:27:41.472Z,7.20
2019-02-05T09:30:18.738Z,5.97
2019-02-05T09:32:51.236Z,5.47
2019-02-05T09:35:24.535Z,5.90
2019-02-05T09:37:57.902Z,5.27
2019-02-05T09:40:31.324Z,5.60
2019-02-05T09:43:04.887Z,7.23
2019-02-05T09:45:37.708Z,6.87
2019-02-05T09:48:13.178Z,6.53
2019-02-05T09:50:45.652Z,6.00
2019-02-05T09:53:19.791Z,7.07
2019-02-05T09:55:54.862Z,5.80
2019-02-05T09:58:26.532Z,5.40
2019-02-05T10:01:02.373Z,5.17
2019-02-05T10:03:37.219Z,7.30
2019-02-05T10:06:08.629Z,6.00
2019-02-05T10:08:40.639Z,5.87
2019-02-05T10:11:13.841Z,4.87
2019-02-05T10:13:49.547Z,6.10
2019-02-05T10:16:21.897Z,5.70
2019-02-05T10:18:57.419Z,6.27
2019-02-05T10:21:30.912Z,5.27
2019-02-05T10:24:03.662Z,6.37
2019-02-05T10:26:39.298Z,6.37
2019-02-05T10:29:11.814Z,5.73
2019-02-05T10:31:43.052Z,6.90
2019-02-05T10:34:15.715Z,5.03
2019-02-05T10:36:49.740Z,5.77
2019-02-05T10:39:23.726Z,7.77
2019-02-05T10:41:55.083Z,6.90
2019-02-05T10:44:26.283Z,6.97
2019-02-05T10:46:59.863Z,7.40
2019-02-05T10:49:32.077Z,6.90
2019-02-05T10:52:04.694Z,6.43
2019-02-05T10:54:38.310Z,7.83
2019-02-05T10:57:10.002Z,6.57
2019-02-05T10:59:43.929Z,6.03
2019-02-05T11:02:18.296Z,5.27
2019-02-05T11:04:52.012Z,6.73
2019-02-05T11:07:25.946Z,6.73
2019-02-05T11:09:58.860Z,7.20
2019-02-05T11:12:31.912Z,7.50
2019-02-05T11:15:04.287Z,6.77
2019-02-05T11:17:38.014Z,6.77
2019-02-05T11:20:13.110Z,5.80
2019-02-05T11:22:46.421Z,6.70
2019-02-05T11:25:20.456Z,6.40
2019-02-05T11:27:54.136Z,7.13
2019-02-05T11:30:30.587Z,7.00
2019-02-05T11:33:02.082Z,5.83
2019-02-05T11:35:35.114Z,6.20
2019-02-05T11:38:07.942Z,6.40
2019-02-05T11:40:42.866Z,6.37
2019-02-05T11:43:16.840Z,7.13
2019-02-05T11:45:48.936Z,7.10
2019-02-05T11:48:24.814Z,6.10
2019-02-05T11:51:06.574Z,6.70
2019-02-05T11:53:40.999Z,7.53
2019-02-05T11:56:15.861Z,5.70
2019-02-05T11:58:48.217Z,5.97
2019-02-05T12:01:38.471Z,5.50
2019-02-05T12:04:05.226Z,7.27
2019-02-05T12:06:38.155Z,5.70
2019-02-05T12:09:21.327Z,6.97
2019-02-05T12:11:55.370Z,7.30
2019-02-05T12:14:29.245Z,5.60
2019-02-05T12:17:00.768Z,6.03
2019-02-05T12:19:32.350Z,6.50
2019-02-05T12:22:05.361Z,4.60
2019-02-05T12:24:39.169Z,6.03
2019-02-05T12:27:13.216Z,6.17
2019-02-05T12:29:47.222Z,6.30
2019-02-05T12:32:21.200Z,6.37
2019-02-05T12:34:52.406Z,6.37
2019-02-05T12:37:26.368Z,6.30
2019-02-05T12:39:57.910Z,6.03
2019-02-05T12:42:30.501Z,5.27
2019-02-05T12:45:05.535Z,5.30
2019-02-05T12:47:40.101Z,5.87
2019-02-05T12:50:16.196Z,5.90
2019-02-05T12:52:49.548Z,6.47
2019-02-05T12:55:23.863Z,6.50
2019-02-05T12:57:57.903Z,6.27
2019-02-05T13:00:34.904Z,5.90
2019-02-05T13:03:10.518Z,6.40
2019-02-05T13:05:44.359Z,6.30
2019-02-05T13:08:18.102Z,6.60
2019-02-05T13:10:52.817Z,6.43
2019-02-05T13:13:24.478Z,6.03
2019-02-05T13:16:00.135Z,5.70
2019-02-05T13:18:31.768Z,5.53
2019-02-05T13:21:03.620Z,5.80
2019-02-05T13:23:35.413Z,5.63
2019-02-05T13:26:09.716Z,5.50
2019-02-05T13:28:49.039Z,5.57
2019-02-05T13:31:28.940Z,5.83
2019-02-05T13:34:08.489Z,5.90
2019-02-05T13:36:41.579Z,5.30
2019-02-05T13:39:14.255Z,6.00
2019-02-05T13:41:55.106Z,29.47
2019-02-05T13:44:33.592Z,7.33
2019-02-05T13:47:13.836Z,9.13
2019-02-05T13:49:56.121Z,6.90
2019-02-05T13:52:34.642Z,6.60
2019-02-05T13:55:08.019Z,7.57
2019-02-05T13:57:41.656Z,7.40
2019-02-05T14:00:19.455Z,7.77
2019-02-05T14:03:04.919Z,8.90
2019-02-05T14:05:44.854Z,8.30
2019-02-05T14:08:24.712Z,6.23
2019-02-05T14:11:00.438Z,5.77
2019-02-05T14:13:32.266Z,6.53
2019-02-05T14:16:04.059Z,6.40
2019-02-05T14:18:35.301Z,6.57
2019-02-05T14:21:17.399Z,6.37
2019-02-05T14:23:56.790Z,6.87
2019-02-05T14:26:30.390Z,6.60
2019-02-05T14:29:04.331Z,7.10
2019-02-05T14:31:35.913Z,7.47
2019-02-05T14:34:07.873Z,7.83
2019-02-05T14:36:48.035Z,7.37
2019-02-05T14:39:23.358Z,7.97
2019-02-05T14:41:54.838Z,8.23
2019-02-05T14:44:26.835Z,8.83
2019-02-05T14:46:59.639Z,8.97
2019-02-05T14:49:31.850Z,8.80
2019-02-05T14:52:05.878Z,8.67
2019-02-05T14:54:46.218Z,8.20
2019-02-05T14:57:20.381Z,7.80
2019-02-05T14:59:54.579Z,7.97
2019-02-05T15:02:27.996Z,9.80
2019-02-05T15:05:12.870Z,9.97
2019-02-05T15:07:45.149Z,8.17
2019-02-05T15:10:20.572Z,8.73
2019-02-05T15:12:53.117Z,9.70
2019-02-05T15:15:27.970Z,8.70
2019-02-05T15:18:01.183Z,8.40
2019-02-05T15:20:37.216Z,9.90
2019-02-05T15:23:12.780Z,8.50
2019-02-05T15:25:46.175Z,9.70
2019-02-05T15:28:19.000Z,9.80
2019-02-05T15:30:50.282Z,8.30
2019-02-05T15:33:41.985Z,7.93
2019-02-05T15:36:27.694Z,7.93
2019-02-05T15:38:59.138Z,7.40
2019-02-05T15:41:31.956Z,11.27
2019-02-05T15:44:04.736Z,9.83
2019-02-05T15:46:38.144Z,20.80
2019-02-05T15:49:12.552Z,32.20
2019-02-05T15:51:46.174Z,14.73
2019-02-05T15:54:21.709Z,10.23
2019-02-05T15:56:54.166Z,10.57
2019-02-05T15:59:25.421Z,10.10
2019-02-05T16:02:06.055Z,9.87
2019-02-05T16:04:31.912Z,8.57
2019-02-05T16:07:04.882Z,8.20
2019-02-05T16:09:38.314Z,6.67
2019-02-05T16:12:12.188Z,6.97
2019-02-05T16:14:45.543Z,7.80
2019-02-05T16:17:17.624Z,8.20
2019-02-05T16:19:52.342Z,6.20
2019-02-05T16:22:25.313Z,7.03
2019-02-05T16:25:00.388Z,6.30
2019-02-05T16:27:32.050Z,7.60
2019-02-05T16:30:05.565Z,6.20
2019-02-05T16:32:38.203Z,7.50
2019-02-05T16:35:10.187Z,8.20
2019-02-05T16:37:43.568Z,7.30
2019-02-05T16:40:20.188Z,7.70
2019-02-05T16:42:53.443Z,5.90
2019-02-05T16:45:26.964Z,7.57
2019-02-05T16:47:59.302Z,20.60
2019-02-05T16:50:34.370Z,20.10
2019-02-05T16:53:08.774Z,16.43
2019-02-05T16:55:41.532Z,21.27
2019-02-05T16:58:15.538Z,42.90
2019-02-05T17:00:49.294Z,15.67
2019-02-05T17:03:20.649Z,47.37
2019-02-05T17:05:54.370Z,23.17
2019-02-05T17:08:31.400Z,14.10
2019-02-05T17:11:06.101Z,8.10
2019-02-05T17:13:39.226Z,8.20
2019-02-05T17:16:12.065Z,7.83
2019-02-05T17:18:43.658Z,7.90
2019-02-05T17:21:17.535Z,7.47
2019-02-05T17:23:54.194Z,9.83
2019-02-05T17:26:25.440Z,8.60
2019-02-05T17:28:58.677Z,7.40
2019-02-05T17:31:30.836Z,8.00
2019-02-05T17:34:02.053Z,7.00
2019-02-05T17:36:33.287Z,15.83
2019-02-05T17:39:09.145Z,10.57
2019-02-05T17:41:40.565Z,11.33
2019-02-05T17:44:13.418Z,13.07
2019-02-05T17:46:45.655Z,11.83
2019-02-05T17:49:19.678Z,17.37
2019-02-05T17:51:51.754Z,16.57
2019-02-05T17:54:24.652Z,16.40
2019-02-05T17:56:55.876Z,17.33
2019-02-05T17:59:29.904Z,9.23
2019-02-05T18:02:03.943Z,6.53
2019-02-05T18:04:35.788Z,8.00
2019-02-05T18:07:08.881Z,6.43
2019-02-05T18:09:41.764Z,7.50
2019-02-05T18:12:15.719Z,7.20
2019-02-05T18:14:47.535Z,6.80
2019-02-05T18:17:20.768Z,7.30
2019-02-05T18:19:54.791Z,9.70
2019-02-05T18:22:28.921Z,11.00
2019-02-05T18:25:00.228Z,16.63
2019-02-05T18:27:32.178Z,19.30
2019-02-05T18:30:09.026Z,12.97
2019-02-05T18:32:45.139Z,9.23
2019-02-05T18:35:18.945Z,7.50
2019-02-05T18:37:52.941Z,8.90
2019-02-05T18:40:27.132Z,7.30
2019-02-05T18:43:02.563Z,8.70
2019-02-05T18:45:36.008Z,8.70
2019-02-05T18:48:08.900Z,8.30
2019-02-05T18:50:53.338Z,11.17
2019-02-05T18:53:25.832Z,12.80
2019-02-05T18:55:58.867Z,25.33
2019-02-05T18:58:32.079Z,35.77
2019-02-05T19:01:03.958Z,21.83
2019-02-05T19:03:35.863Z,17.13
2019-02-05T19:06:09.185Z,22.40
2019-02-05T19:08:43.178Z,20.73
2019-02-05T19:11:18.809Z,21.27
2019-02-05T19:13:53.649Z,15.83
2019-02-05T19:16:25.225Z,13.07
2019-02-05T19:18:56.465Z,11.20
2019-02-05T19:21:30.196Z,9.97
2019-02-05T19:24:14.839Z,9.10
2019-02-05T19:26:50.533Z,9.57
2019-02-05T19:29:24.186Z,15.60
2019-02-05T19:31:58.310Z,27.60
2019-02-05T19:34:32.297Z,36.27
2019-02-05T19:37:04.218Z,40.97
2019-02-05T19:39:37.091Z,22.27
2019-02-05T19:42:11.124Z,18.37
2019-02-05T19:44:50.988Z,11.33
2019-02-05T19:47:27.289Z,12.27
2019-02-05T19:50:02.302Z,12.00
2019-02-05T19:52:35.357Z,7.80
2019-02-05T19:55:08.469Z,8.07
2019-02-05T19:57:40.640Z,8.20
2019-02-05T20:00:14.248Z,34.40
2019-02-05T20:02:45.529Z,14.40
2019-02-05T20:05:20.238Z,21.40
2019-02-05T20:07:53.317Z,14.30
2019-02-05T20:10:28.355Z,16.03
2019-02-05T20:13:01.145Z,7.90
2019-02-05T20:15:32.830Z,7.07
2019-02-05T20:18:06.736Z,5.30
2019-02-05T20:20:41.022Z,5.33
2019-02-05T20:23:13.517Z,4.50
2019-02-05T20:25:49.037Z,4.97
2019-02-05T20:28:21.803Z,4.70
2019-02-05T20:30:53.023Z,5.17
2019-02-05T20:33:27.426Z,4.67
2019-02-05T20:36:00.546Z,6.60
2019-02-05T20:38:32.238Z,5.13
2019-02-05T20:41:05.512Z,6.00
2019-02-05T20:43:38.405Z,6.20
2019-02-05T20:46:10.582Z,6.03
2019-02-05T20:48:41.826Z,4.90
2019-02-05T20:51:13.656Z,5.47
2019-02-05T20:53:45.820Z,5.60
2019-02-05T20:56:17.045Z,7.43
2019-02-05T20:58:52.789Z,7.27
2019-02-05T21:01:25.276Z,10.47
2019-02-05T21:04:01.182Z,9.57
2019-02-05T21:06:32.217Z,6.77
2019-02-05T21:09:04.694Z,10.00
2019-02-05T21:11:37.822Z,11.80
2019-02-05T21:14:11.632Z,10.47
2019-02-05T21:16:45.744Z,9.23
2019-02-05T21:19:19.683Z,9.50
2019-02-05T21:21:53.660Z,8.07
2019-02-05T21:24:27.492Z,6.40
2019-02-05T21:26:58.726Z,5.37
2019-02-05T21:29:32.381Z,5.20
2019-02-05T21:32:06.629Z,5.67
2019-02-05T21:34:38.790Z,5.50
2019-02-05T21:37:11.760Z,4.67
2019-02-05T21:39:43.022Z,5.73
2019-02-05T21:42:16.752Z,5.07
2019-02-05T21:44:50.612Z,4.37
2019-02-05T21:47:23.416Z,4.33
2019-02-05T21:49:58.414Z,4.10
2019-02-05T21:52:31.442Z,3.70
2019-02-05T21:55:02.939Z,4.20
2019-02-05T21:57:38.139Z,3.47
2019-02-05T22:00:26.862Z,3.80
2019-02-05T22:03:00.582Z,5.13
2019-02-05T22:05:32.938Z,3.40
2019-02-05T22:08:05.307Z,5.10
2019-02-05T22:10:38.863Z,3.90
2019-02-05T22:13:12.865Z,3.50
2019-02-05T22:15:45.908Z,4.40
2019-02-05T22:18:18.026Z,3.50
2019-02-05T22:20:49.242Z,5.30
2019-02-05T22:23:23.019Z,4.97
2019-02-05T22:25:58.522Z,5.07
2019-02-05T22:28:32.737Z,6.73
2019-02-05T22:31:06.676Z,8.27
2019-02-05T22:33:39.105Z,9.43
2019-02-05T22:36:13.495Z,11.33
2019-02-05T22:38:47.139Z,12.20
2019-02-05T22:41:21.250Z,26.47
2019-02-05T22:43:55.154Z,26.30
2019-02-05T22:46:28.786Z,22.20
2019-02-05T22:49:00.035Z,19.80
2019-02-05T22:51:32.656Z,17.37
2019-02-05T22:54:05.201Z,17.70
2019-02-05T22:56:39.755Z,16.67
2019-02-05T22:59:12.173Z,15.63
2019-02-05T23:02:06.715Z,17.07
2019-02-05T23:05:24.330Z,17.23
2019-02-05T23:07:59.928Z,18.50
2019-02-05T23:11:11.586Z,17.30
2019-02-05T23:13:45.272Z,17.13
2019-02-05T23:16:21.220Z,19.17
2019-02-05T23:18:53.643Z,19.50
2019-02-05T23:21:26.904Z,18.73
2019-02-05T23:24:01.924Z,18.00
2019-02-05T23:26:33.415Z,19.50
2019-02-05T23:29:05.100Z,19.50
2019-02-05T23:31:39.162Z,14.73
2019-02-05T23:34:13.194Z,14.30
2019-02-05T23:36:45.048Z,16.77
2019-02-05T23:39:16.809Z,19.00
2019-02-05T23:41:49.254Z,21.57
2019-02-05T23:44:20.482Z,21.60
2019-02-05T23:46:55.238Z,22.97
2019-02-05T23:49:31.455Z,23.50
2019-02-05T23:52:07.033Z,25.53
2019-02-05T23:54:39.019Z,26.17
2019-02-05T23:57:13.759Z,25.40
2019-02-05T23:59:47.310Z,24.70
